Time;durP1;ratioP1;P1;durP2;ratioP2;P2;SDS_P1;SDS_P2;PMS_P1;PMS_P2;Temp;Humidity;BMP_temperature;BMP_pressure;BME280_temperature;BME280_humidity;BME280_pressure;Samples;Min_cycle;Max_cycle;Signal;HPM_P1;HPM_P2
2022/09/06 00:00:34;;;;;;;7.75;7;;;;;;;15.51;77.75195;95528.23;;;;
2022/09/06 00:01:36;;;;;;;7.75;7;;;;;;;15.51;77.75195;95528.23;;;;
2022/09/06 00:02:37;;;;;;;7.75;7;;;;;;;15.51;77.75195;95528.23;;;;
2022/09/06 00:03:39;;;;;;;7.75;7;;;;;;;15.51;77.75195;95528.23;;;;
2022/09/06 00:04:40;;;;;;;7.75;7;;;;;;;15.51;77.75195;95528.23;;;;
2022/09/06 00:05:42;;;;;;;7.75;7;;;;;;;15.51;77.75195;95528.23;;;;
2022/09/06 00:06:42;;;;;;;7.75;7;;;;;;;15.51;77.75195;95528.23;;;;
2022/09/06 00:07:43;;;;;;;7.75;7;;;;;;;15.51;77.75195;95528.23;;;;
2022/09/06 00:08:43;;;;;;;7.75;7;;;;;;;15.51;77.75195;95528.23;;;;
2022/09/06 00:09:46;;;;;;;7.75;7;;;;;;;15.51;77.75195;95528.23;;;;
2022/09/06 00:10:46;;;;;;;7.75;7;;;;;;;15.51;77.75195;95528.23;;;;
2022/09/06 00:11:47;;;;;;;7.6;6.9;;;;;;;15.42;78.01953;95524.72;;;;
2022/09/06 00:12:47;;;;;;;7.6;6.9;;;;;;;15.42;78.01953;95524.72;;;;
2022/09/06 00:13:48;;;;;;;7.6;6.9;;;;;;;15.42;78.01953;95524.72;;;;
2022/09/06 00:14:48;;;;;;;7.6;6.9;;;;;;;15.42;78.01953;95524.72;;;;
2022/09/06 00:15:49;;;;;;;7.6;6.9;;;;;;;15.42;78.01953;95524.72;;;;
2022/09/06 00:16:50;;;;;;;7.6;6.9;;;;;;;15.42;78.01953;95524.72;;;;
2022/09/06 00:17:50;;;;;;;7.6;6.9;;;;;;;15.42;78.01953;95524.72;;;;
2022/09/06 00:18:51;;;;;;;7.6;6.9;;;;;;;15.42;78.01953;95524.72;;;;
2022/09/06 00:19:52;;;;;;;7.6;6.9;;;;;;;15.42;78.01953;95524.72;;;;
2022/09/06 00:20:53;;;;;;;7.6;6.9;;;;;;;15.42;78.01953;95524.72;;;;
2022/09/06 00:21:53;;;;;;;7.799999;7.1;;;;;;;15.4;78.30957;95523.75;;;;
2022/09/06 00:22:54;;;;;;;7.799999;7.1;;;;;;;15.4;78.30957;95523.75;;;;
2022/09/06 00:23:56;;;;;;;7.799999;7.1;;;;;;;15.4;78.30957;95523.75;;;;
2022/09/06 00:24:57;;;;;;;7.799999;7.1;;;;;;;15.4;78.30957;95523.75;;;;
2022/09/06 00:25:57;;;;;;;7.799999;7.1;;;;;;;15.4;78.30957;95523.75;;;;
2022/09/06 00:27:02;;;;;;;7.799999;7.1;;;;;;;15.4;78.30957;95523.75;;;;
2022/09/06 00:28:03;;;;;;;7.799999;7.1;;;;;;;15.4;78.30957;95523.75;;;;
2022/09/06 00:29:04;;;;;;;7.799999;7.1;;;;;;;15.4;78.30957;95523.75;;;;
2022/09/06 00:30:05;;;;;;;7.799999;7.1;;;;;;;15.4;78.30957;95523.75;;;;
2022/09/06 00:31:07;;;;;;;7.799999;7.1;;;;;;;15.4;78.30957;95523.75;;;;
2022/09/06 00:32:09;;;;;;;7.799999;7.1;;;;;;;15.4;78.30957;95523.75;;;;
2022/09/06 00:33:10;;;;;;;7.65;6.85;;;;;;;15.25;78.5;95521.56;;;;
2022/09/06 00:34:10;;;;;;;7.65;6.85;;;;;;;15.25;78.5;95521.56;;;;
2022/09/06 00:35:10;;;;;;;7.65;6.85;;;;;;;15.25;78.5;95521.56;;;;
2022/09/06 00:36:11;;;;;;;7.65;6.85;;;;;;;15.25;78.5;95521.56;;;;
2022/09/06 00:37:12;;;;;;;7.65;6.85;;;;;;;15.25;78.5;95521.56;;;;
2022/09/06 00:38:13;;;;;;;7.65;6.85;;;;;;;15.25;78.5;95521.56;;;;
2022/09/06 00:39:13;;;;;;;7.65;6.85;;;;;;;15.25;78.5;95521.56;;;;
2022/09/06 00:40:14;;;;;;;7.65;6.85;;;;;;;15.25;78.5;95521.56;;;;
2022/09/06 00:41:15;;;;;;;7.65;6.85;;;;;;;15.25;78.5;95521.56;;;;
2022/09/06 00:42:16;;;;;;;7.65;6.85;;;;;;;15.25;78.5;95521.56;;;;
2022/09/06 00:43:16;;;;;;;7.65;6.95;;;;;;;15.12;78.7832;95524.88;;;;
2022/09/06 00:44:17;;;;;;;7.65;6.95;;;;;;;15.12;78.7832;95524.88;;;;
2022/09/06 00:45:18;;;;;;;7.65;6.95;;;;;;;15.12;78.7832;95524.88;;;;
2022/09/06 00:46:19;;;;;;;7.65;6.95;;;;;;;15.12;78.7832;95524.88;;;;
2022/09/06 00:47:22;;;;;;;7.65;6.95;;;;;;;15.12;78.7832;95524.88;;;;
2022/09/06 00:48:23;;;;;;;7.65;6.95;;;;;;;15.12;78.7832;95524.88;;;;
2022/09/06 00:49:24;;;;;;;7.65;6.95;;;;;;;15.12;78.7832;95524.88;;;;
2022/09/06 00:50:30;;;;;;;7.65;6.95;;;;;;;15.12;78.7832;95524.88;;;;
2022/09/06 00:51:31;;;;;;;7.65;6.95;;;;;;;15.12;78.7832;95524.88;;;;
2022/09/06 00:52:34;;;;;;;7.65;6.95;;;;;;;15.12;78.7832;95524.88;;;;
2022/09/06 00:53:36;;;;;;;7.65;6.95;;;;;;;15.12;78.7832;95524.88;;;;
2022/09/06 00:54:37;;;;;;;8.600001;7.1;;;;;;;14.92;79.00684;95524.02;;;;
2022/09/06 00:55:41;;;;;;;8.600001;7.1;;;;;;;14.92;79.00684;95524.02;;;;
2022/09/06 00:56:42;;;;;;;8.600001;7.1;;;;;;;14.92;79.00684;95524.02;;;;
2022/09/06 00:57:45;;;;;;;8.600001;7.1;;;;;;;14.92;79.00684;95524.02;;;;
2022/09/06 00:58:46;;;;;;;8.600001;7.1;;;;;;;14.92;79.00684;95524.02;;;;
2022/09/06 00:59:48;;;;;;;8.600001;7.1;;;;;;;14.92;79.00684;95524.02;;;;
2022/09/06 01:00:49;;;;;;;8.600001;7.1;;;;;;;14.92;79.00684;95524.02;;;;
2022/09/06 01:01:50;;;;;;;8.600001;7.1;;;;;;;14.92;79.00684;95524.02;;;;
2022/09/06 01:02:50;;;;;;;8.600001;7.1;;;;;;;14.92;79.00684;95524.02;;;;
2022/09/06 01:03:52;;;;;;;8.600001;7.1;;;;;;;14.92;79.00684;95524.02;;;;
2022/09/06 01:04:53;;;;;;;7.45;6.75;;;;;;;14.82;79.33691;95536.17;;;;
2022/09/06 01:05:54;;;;;;;7.45;6.75;;;;;;;14.82;79.33691;95536.17;;;;
2022/09/06 01:07:05;;;;;;;7.45;6.75;;;;;;;14.82;79.33691;95536.17;;;;
2022/09/06 01:08:15;;;;;;;7.45;6.75;;;;;;;14.82;79.33691;95536.17;;;;
2022/09/06 01:09:26;;;;;;;7.45;6.75;;;;;;;14.82;79.33691;95536.17;;;;
2022/09/06 01:10:42;;;;;;;7.45;6.75;;;;;;;14.82;79.33691;95536.17;;;;
2022/09/06 01:11:58;;;;;;;7.45;6.75;;;;;;;14.82;79.33691;95536.17;;;;
2022/09/06 01:13:14;;;;;;;7.45;6.75;;;;;;;14.82;79.33691;95536.17;;;;
2022/09/06 01:14:26;;;;;;;7.45;6.75;;;;;;;14.82;79.33691;95536.17;;;;
2022/09/06 01:15:38;;;;;;;8.25;7.25;;;;;;;14.65;79.56543;95532.59;;;;
2022/09/06 01:16:50;;;;;;;8.25;7.25;;;;;;;14.65;79.56543;95532.59;;;;
2022/09/06 01:17:59;;;;;;;8.25;7.25;;;;;;;14.65;79.56543;95532.59;;;;
2022/09/06 01:19:13;;;;;;;8.25;7.25;;;;;;;14.65;79.56543;95532.59;;;;
2022/09/06 01:20:32;;;;;;;8.25;7.25;;;;;;;14.65;79.56543;95532.59;;;;
2022/09/06 01:21:44;;;;;;;8.25;7.25;;;;;;;14.65;79.56543;95532.59;;;;
2022/09/06 01:22:50;;;;;;;8.25;7.25;;;;;;;14.65;79.56543;95532.59;;;;
2022/09/06 01:24:08;;;;;;;8.25;7.25;;;;;;;14.65;79.56543;95532.59;;;;
2022/09/06 01:26:09;;;;;;;7.750001;7.05;;;;;;;14.55;79.83008;95540.74;;;;
2022/09/06 01:27:27;;;;;;;7.750001;7.05;;;;;;;14.55;79.83008;95540.74;;;;
2022/09/06 01:28:45;;;;;;;7.750001;7.05;;;;;;;14.55;79.83008;95540.74;;;;
2022/09/06 01:29:46;;;;;;;7.750001;7.05;;;;;;;14.55;79.83008;95540.74;;;;
2022/09/06 01:30:50;;;;;;;7.750001;7.05;;;;;;;14.55;79.83008;95540.74;;;;
2022/09/06 01:31:56;;;;;;;7.750001;7.05;;;;;;;14.55;79.83008;95540.74;;;;
2022/09/06 01:33:03;;;;;;;7.750001;7.05;;;;;;;14.55;79.83008;95540.74;;;;
2022/09/06 01:34:13;;;;;;;7.750001;7.05;;;;;;;14.55;79.83008;95540.74;;;;
2022/09/06 01:35:23;;;;;;;7.750001;7.05;;;;;;;14.55;79.83008;95540.74;;;;
2022/09/06 01:36:28;;;;;;;7.750001;7.05;;;;;;;14.55;79.83008;95540.74;;;;
2022/09/06 01:37:35;;;;;;;7.750001;7.05;;;;;;;14.55;79.83008;95540.74;;;;
2022/09/06 01:38:36;;;;;;;7.750001;7.05;;;;;;;14.55;79.83008;95540.74;;;;
2022/09/06 01:39:37;;;;;;;7.750001;7.05;;;;;;;14.55;79.83008;95540.74;;;;
2022/09/06 01:40:39;;;;;;;7.750001;7.05;;;;;;;14.55;79.83008;95540.74;;;;
2022/09/06 01:41:39;;;;;;;7.750001;7.05;;;;;;;14.55;79.83008;95540.74;;;;
2022/09/06 01:42:40;;;;;;;7.750001;7.05;;;;;;;14.55;79.83008;95540.74;;;;
2022/09/06 01:43:44;;;;;;;7.750001;7.05;;;;;;;14.55;79.83008;95540.74;;;;
2022/09/06 01:44:47;;;;;;;7.750001;7.05;;;;;;;14.55;79.83008;95540.74;;;;
2022/09/06 01:45:54;;;;;;;7.750001;7.05;;;;;;;14.55;79.83008;95540.74;;;;
2022/09/06 01:47:02;;;;;;;7.750001;7.05;;;;;;;14.55;79.83008;95540.74;;;;
2022/09/06 01:48:12;;;;;;;7.700001;7.000001;;;;;;;14.3;80.13086;95547.17;;;;
2022/09/06 01:49:22;;;;;;;7.700001;7.000001;;;;;;;14.3;80.13086;95547.17;;;;
2022/09/06 01:50:36;;;;;;;7.700001;7.000001;;;;;;;14.3;80.13086;95547.17;;;;
2022/09/06 01:51:53;;;;;;;7.700001;7.000001;;;;;;;14.3;80.13086;95547.17;;;;
2022/09/06 01:53:05;;;;;;;7.700001;7.000001;;;;;;;14.3;80.13086;95547.17;;;;
2022/09/06 01:54:21;;;;;;;7.700001;7.000001;;;;;;;14.3;80.13086;95547.17;;;;
2022/09/06 01:55:32;;;;;;;7.700001;7.000001;;;;;;;14.3;80.13086;95547.17;;;;
2022/09/06 01:56:43;;;;;;;7.700001;7.000001;;;;;;;14.3;80.13086;95547.17;;;;
2022/09/06 01:57:52;;;;;;;7.95;7.15;;;;;;;14.15;80.28809;95553.93;;;;
2022/09/06 01:59:07;;;;;;;7.95;7.15;;;;;;;14.15;80.28809;95553.93;;;;
2022/09/06 02:00:30;;;;;;;7.95;7.15;;;;;;;14.15;80.28809;95553.93;;;;
2022/09/06 02:01:34;;;;;;;7.95;7.15;;;;;;;14.15;80.28809;95553.93;;;;
2022/09/06 02:02:41;;;;;;;7.95;7.15;;;;;;;14.15;80.28809;95553.93;;;;
2022/09/06 02:03:52;;;;;;;7.95;7.15;;;;;;;14.15;80.28809;95553.93;;;;
2022/09/06 02:05:00;;;;;;;7.95;7.15;;;;;;;14.15;80.28809;95553.93;;;;
2022/09/06 02:06:05;;;;;;;7.95;7.15;;;;;;;14.15;80.28809;95553.93;;;;
2022/09/06 02:07:11;;;;;;;7.95;7.15;;;;;;;14.15;80.28809;95553.93;;;;
2022/09/06 02:08:19;;;;;;;7.95;7.15;;;;;;;14.15;80.28809;95553.93;;;;
2022/09/06 02:09:26;;;;;;;8.050001;7.249999;;;;;;;14.09;80.50488;95549.5;;;;
2022/09/06 02:10:33;;;;;;;8.050001;7.249999;;;;;;;14.09;80.50488;95549.5;;;;
2022/09/06 02:11:39;;;;;;;8.050001;7.249999;;;;;;;14.09;80.50488;95549.5;;;;
2022/09/06 02:12:47;;;;;;;8.050001;7.249999;;;;;;;14.09;80.50488;95549.5;;;;
2022/09/06 02:13:55;;;;;;;8.050001;7.249999;;;;;;;14.09;80.50488;95549.5;;;;
2022/09/06 02:15:01;;;;;;;8.050001;7.249999;;;;;;;14.09;80.50488;95549.5;;;;
2022/09/06 02:16:07;;;;;;;8.050001;7.249999;;;;;;;14.09;80.50488;95549.5;;;;
2022/09/06 02:17:09;;;;;;;8.050001;7.249999;;;;;;;14.09;80.50488;95549.5;;;;
2022/09/06 02:18:15;;;;;;;8.050001;7.249999;;;;;;;14.09;80.50488;95549.5;;;;
2022/09/06 02:19:21;;;;;;;7.75;6.95;;;;;;;13.96;80.62207;95549.17;;;;
2022/09/06 02:20:28;;;;;;;7.75;6.95;;;;;;;13.96;80.62207;95549.17;;;;
2022/09/06 02:21:31;;;;;;;7.75;6.95;;;;;;;13.96;80.62207;95549.17;;;;
2022/09/06 02:22:36;;;;;;;7.75;6.95;;;;;;;13.96;80.62207;95549.17;;;;
2022/09/06 02:23:40;;;;;;;7.75;6.95;;;;;;;13.96;80.62207;95549.17;;;;
2022/09/06 02:24:42;;;;;;;7.75;6.95;;;;;;;13.96;80.62207;95549.17;;;;
2022/09/06 02:25:44;;;;;;;7.75;6.95;;;;;;;13.96;80.62207;95549.17;;;;
2022/09/06 02:26:50;;;;;;;7.75;6.95;;;;;;;13.96;80.62207;95549.17;;;;
2022/09/06 02:27:51;;;;;;;7.75;6.95;;;;;;;13.96;80.62207;95549.17;;;;
2022/09/06 02:28:52;;;;;;;7.75;6.95;;;;;;;13.96;80.62207;95549.17;;;;
2022/09/06 02:29:53;;;;;;;8.749999;7.050001;;;;;;;13.93;80.74707;95554.03;;;;
2022/09/06 02:30:53;;;;;;;8.749999;7.050001;;;;;;;13.93;80.74707;95554.03;;;;
2022/09/06 02:31:59;;;;;;;8.749999;7.050001;;;;;;;13.93;80.74707;95554.03;;;;
2022/09/06 02:33:05;;;;;;;8.749999;7.050001;;;;;;;13.93;80.74707;95554.03;;;;
2022/09/06 02:34:10;;;;;;;8.749999;7.050001;;;;;;;13.93;80.74707;95554.03;;;;
2022/09/06 02:35:15;;;;;;;8.749999;7.050001;;;;;;;13.93;80.74707;95554.03;;;;
2022/09/06 02:36:16;;;;;;;8.749999;7.050001;;;;;;;13.93;80.74707;95554.03;;;;
2022/09/06 02:37:17;;;;;;;8.749999;7.050001;;;;;;;13.93;80.74707;95554.03;;;;
2022/09/06 02:38:18;;;;;;;8.749999;7.050001;;;;;;;13.93;80.74707;95554.03;;;;
2022/09/06 02:39:21;;;;;;;8.749999;7.050001;;;;;;;13.93;80.74707;95554.03;;;;
2022/09/06 02:40:22;;;;;;;8.749999;7.050001;;;;;;;13.93;80.74707;95554.03;;;;
2022/09/06 02:41:23;;;;;;;8.049998;7.05;;;;;;;13.84;80.88086;95551;;;;
2022/09/06 02:42:24;;;;;;;8.049998;7.05;;;;;;;13.84;80.88086;95551;;;;
2022/09/06 02:43:25;;;;;;;8.049998;7.05;;;;;;;13.84;80.88086;95551;;;;
2022/09/06 02:44:26;;;;;;;8.049998;7.05;;;;;;;13.84;80.88086;95551;;;;
2022/09/06 02:45:26;;;;;;;8.049998;7.05;;;;;;;13.84;80.88086;95551;;;;
2022/09/06 02:46:27;;;;;;;8.049998;7.05;;;;;;;13.84;80.88086;95551;;;;
2022/09/06 02:47:27;;;;;;;8.049998;7.05;;;;;;;13.84;80.88086;95551;;;;
2022/09/06 02:48:28;;;;;;;8.049998;7.05;;;;;;;13.84;80.88086;95551;;;;
2022/09/06 02:49:28;;;;;;;8.049998;7.05;;;;;;;13.84;80.88086;95551;;;;
2022/09/06 02:50:29;;;;;;;8.049998;7.05;;;;;;;13.84;80.88086;95551;;;;
2022/09/06 02:51:30;;;;;;;7.8;7;;;;;;;13.8;81.05762;95564.42;;;;
2022/09/06 02:52:35;;;;;;;7.8;7;;;;;;;13.8;81.05762;95564.42;;;;
2022/09/06 02:53:35;;;;;;;7.8;7;;;;;;;13.8;81.05762;95564.42;;;;
2022/09/06 02:54:36;;;;;;;7.8;7;;;;;;;13.8;81.05762;95564.42;;;;
2022/09/06 02:55:37;;;;;;;7.8;7;;;;;;;13.8;81.05762;95564.42;;;;
2022/09/06 02:56:38;;;;;;;7.8;7;;;;;;;13.8;81.05762;95564.42;;;;
2022/09/06 02:57:39;;;;;;;7.8;7;;;;;;;13.8;81.05762;95564.42;;;;
2022/09/06 02:58:40;;;;;;;7.8;7;;;;;;;13.8;81.05762;95564.42;;;;
2022/09/06 02:59:40;;;;;;;7.8;7;;;;;;;13.8;81.05762;95564.42;;;;
2022/09/06 03:00:41;;;;;;;7.8;7;;;;;;;13.8;81.05762;95564.42;;;;
2022/09/06 03:01:41;;;;;;;7.8;7;;;;;;;13.8;81.05762;95564.42;;;;
2022/09/06 03:02:42;;;;;;;8.099998;7.299999;;;;;;;13.71;81.19238;95553.83;;;;
2022/09/06 03:03:42;;;;;;;8.099998;7.299999;;;;;;;13.71;81.19238;95553.83;;;;
2022/09/06 03:04:43;;;;;;;8.099998;7.299999;;;;;;;13.71;81.19238;95553.83;;;;
2022/09/06 03:05:43;;;;;;;8.099998;7.299999;;;;;;;13.71;81.19238;95553.83;;;;
2022/09/06 03:06:46;;;;;;;8.099998;7.299999;;;;;;;13.71;81.19238;95553.83;;;;
2022/09/06 03:07:47;;;;;;;8.099998;7.299999;;;;;;;13.71;81.19238;95553.83;;;;
2022/09/06 03:08:47;;;;;;;8.099998;7.299999;;;;;;;13.71;81.19238;95553.83;;;;
2022/09/06 03:09:48;;;;;;;8.099998;7.299999;;;;;;;13.71;81.19238;95553.83;;;;
2022/09/06 03:10:49;;;;;;;8.099998;7.299999;;;;;;;13.71;81.19238;95553.83;;;;
2022/09/06 03:11:50;;;;;;;8.099998;7.299999;;;;;;;13.71;81.19238;95553.83;;;;
2022/09/06 03:12:51;;;;;;;7.699999;6.65;;;;;;;13.71;81.36719;95551.54;;;;
2022/09/06 03:13:52;;;;;;;7.699999;6.65;;;;;;;13.71;81.36719;95551.54;;;;
2022/09/06 03:14:52;;;;;;;7.699999;6.65;;;;;;;13.71;81.36719;95551.54;;;;
2022/09/06 03:15:53;;;;;;;7.699999;6.65;;;;;;;13.71;81.36719;95551.54;;;;
2022/09/06 03:16:55;;;;;;;7.699999;6.65;;;;;;;13.71;81.36719;95551.54;;;;
2022/09/06 03:17:56;;;;;;;7.699999;6.65;;;;;;;13.71;81.36719;95551.54;;;;
2022/09/06 03:18:57;;;;;;;7.699999;6.65;;;;;;;13.71;81.36719;95551.54;;;;
2022/09/06 03:19:58;;;;;;;7.699999;6.65;;;;;;;13.71;81.36719;95551.54;;;;
2022/09/06 03:20:58;;;;;;;7.699999;6.65;;;;;;;13.71;81.36719;95551.54;;;;
2022/09/06 03:21:59;;;;;;;7.699999;6.65;;;;;;;13.71;81.36719;95551.54;;;;
2022/09/06 03:22:59;;;;;;;7.699999;6.65;;;;;;;13.71;81.36719;95551.54;;;;
2022/09/06 03:24:00;;;;;;;7.699999;6.099999;;;;;;;13.62;81.43555;95543.19;;;;
2022/09/06 03:25:00;;;;;;;7.699999;6.099999;;;;;;;13.62;81.43555;95543.19;;;;
2022/09/06 03:26:01;;;;;;;7.699999;6.099999;;;;;;;13.62;81.43555;95543.19;;;;
2022/09/06 03:27:01;;;;;;;7.699999;6.099999;;;;;;;13.62;81.43555;95543.19;;;;
2022/09/06 03:28:02;;;;;;;7.699999;6.099999;;;;;;;13.62;81.43555;95543.19;;;;
2022/09/06 03:29:02;;;;;;;7.699999;6.099999;;;;;;;13.62;81.43555;95543.19;;;;
2022/09/06 03:30:03;;;;;;;7.699999;6.099999;;;;;;;13.62;81.43555;95543.19;;;;
2022/09/06 03:31:06;;;;;;;7.699999;6.099999;;;;;;;13.62;81.43555;95543.19;;;;
2022/09/06 03:32:06;;;;;;;7.699999;6.099999;;;;;;;13.62;81.43555;95543.19;;;;
2022/09/06 03:33:07;;;;;;;7.699999;6.099999;;;;;;;13.62;81.43555;95543.19;;;;
2022/09/06 03:34:07;;;;;;;7.950002;6.7;;;;;;;13.56;81.48828;95533.48;;;;
2022/09/06 03:35:08;;;;;;;7.950002;6.7;;;;;;;13.56;81.48828;95533.48;;;;
2022/09/06 03:36:09;;;;;;;7.950002;6.7;;;;;;;13.56;81.48828;95533.48;;;;
2022/09/06 03:37:09;;;;;;;7.950002;6.7;;;;;;;13.56;81.48828;95533.48;;;;
2022/09/06 03:38:10;;;;;;;7.950002;6.7;;;;;;;13.56;81.48828;95533.48;;;;
2022/09/06 03:39:11;;;;;;;7.950002;6.7;;;;;;;13.56;81.48828;95533.48;;;;
2022/09/06 03:40:11;;;;;;;7.950002;6.7;;;;;;;13.56;81.48828;95533.48;;;;
2022/09/06 03:41:11;;;;;;;7.950002;6.7;;;;;;;13.56;81.48828;95533.48;;;;
2022/09/06 03:42:12;;;;;;;7.950002;6.7;;;;;;;13.56;81.48828;95533.48;;;;
2022/09/06 03:43:12;;;;;;;7.950002;6.7;;;;;;;13.56;81.48828;95533.48;;;;
2022/09/06 03:44:14;;;;;;;7.950002;6.7;;;;;;;13.56;81.48828;95533.48;;;;
2022/09/06 03:45:15;;;;;;;7.4;6.450001;;;;;;;13.43;81.62695;95526.09;;;;
2022/09/06 03:46:15;;;;;;;7.4;6.450001;;;;;;;13.43;81.62695;95526.09;;;;
2022/09/06 03:47:16;;;;;;;7.4;6.450001;;;;;;;13.43;81.62695;95526.09;;;;
2022/09/06 03:48:16;;;;;;;7.4;6.450001;;;;;;;13.43;81.62695;95526.09;;;;
2022/09/06 03:49:18;;;;;;;7.4;6.450001;;;;;;;13.43;81.62695;95526.09;;;;
2022/09/06 03:50:18;;;;;;;7.4;6.450001;;;;;;;13.43;81.62695;95526.09;;;;
2022/09/06 03:51:19;;;;;;;7.4;6.450001;;;;;;;13.43;81.62695;95526.09;;;;
2022/09/06 03:52:20;;;;;;;7.4;6.450001;;;;;;;13.43;81.62695;95526.09;;;;
2022/09/06 03:53:20;;;;;;;7.4;6.450001;;;;;;;13.43;81.62695;95526.09;;;;
2022/09/06 03:54:23;;;;;;;7.4;6.450001;;;;;;;13.43;81.62695;95526.09;;;;
2022/09/06 03:55:23;;;;;;;6.699999;6.050001;;;;;;;13.39;81.74902;95532.07;;;;
2022/09/06 03:56:24;;;;;;;6.699999;6.050001;;;;;;;13.39;81.74902;95532.07;;;;
2022/09/06 03:57:25;;;;;;;6.699999;6.050001;;;;;;;13.39;81.74902;95532.07;;;;
2022/09/06 03:58:25;;;;;;;6.699999;6.050001;;;;;;;13.39;81.74902;95532.07;;;;
2022/09/06 03:59:29;;;;;;;6.699999;6.050001;;;;;;;13.39;81.74902;95532.07;;;;
2022/09/06 04:00:32;;;;;;;6.699999;6.050001;;;;;;;13.39;81.74902;95532.07;;;;
2022/09/06 04:01:32;;;;;;;6.699999;6.050001;;;;;;;13.39;81.74902;95532.07;;;;
2022/09/06 04:02:33;;;;;;;6.699999;6.050001;;;;;;;13.39;81.74902;95532.07;;;;
2022/09/06 04:03:34;;;;;;;6.699999;6.050001;;;;;;;13.39;81.74902;95532.07;;;;
2022/09/06 04:04:35;;;;;;;6.699999;6.050001;;;;;;;13.39;81.74902;95532.07;;;;
2022/09/06 04:05:36;;;;;;;6.699999;6.050001;;;;;;;13.39;81.74902;95532.07;;;;
2022/09/06 04:06:36;;;;;;;6.950001;6.249999;;;;;;;13.3;81.79883;95531.55;;;;
2022/09/06 04:07:37;;;;;;;6.950001;6.249999;;;;;;;13.3;81.79883;95531.55;;;;
2022/09/06 04:08:37;;;;;;;6.950001;6.249999;;;;;;;13.3;81.79883;95531.55;;;;
2022/09/06 04:09:38;;;;;;;6.950001;6.249999;;;;;;;13.3;81.79883;95531.55;;;;
2022/09/06 04:10:39;;;;;;;6.950001;6.249999;;;;;;;13.3;81.79883;95531.55;;;;
2022/09/06 04:11:40;;;;;;;6.950001;6.249999;;;;;;;13.3;81.79883;95531.55;;;;
2022/09/06 04:12:40;;;;;;;6.950001;6.249999;;;;;;;13.3;81.79883;95531.55;;;;
2022/09/06 04:13:41;;;;;;;6.950001;6.249999;;;;;;;13.3;81.79883;95531.55;;;;
2022/09/06 04:14:42;;;;;;;6.950001;6.249999;;;;;;;13.3;81.79883;95531.55;;;;
2022/09/06 04:15:42;;;;;;;6.950001;6.249999;;;;;;;13.3;81.79883;95531.55;;;;
2022/09/06 04:16:44;;;;;;;7.299999;6.15;;;;;;;13.25;81.9502;95545.19;;;;
2022/09/06 04:17:44;;;;;;;7.299999;6.15;;;;;;;13.25;81.9502;95545.19;;;;
2022/09/06 04:18:46;;;;;;;7.299999;6.15;;;;;;;13.25;81.9502;95545.19;;;;
2022/09/06 04:19:46;;;;;;;7.299999;6.15;;;;;;;13.25;81.9502;95545.19;;;;
2022/09/06 04:20:47;;;;;;;7.299999;6.15;;;;;;;13.25;81.9502;95545.19;;;;
2022/09/06 04:21:48;;;;;;;7.299999;6.15;;;;;;;13.25;81.9502;95545.19;;;;
2022/09/06 04:22:49;;;;;;;7.299999;6.15;;;;;;;13.25;81.9502;95545.19;;;;
2022/09/06 04:23:49;;;;;;;7.299999;6.15;;;;;;;13.25;81.9502;95545.19;;;;
2022/09/06 04:24:50;;;;;;;7.299999;6.15;;;;;;;13.25;81.9502;95545.19;;;;
2022/09/06 04:25:50;;;;;;;7.299999;6.15;;;;;;;13.25;81.9502;95545.19;;;;
2022/09/06 04:26:52;;;;;;;7.299999;6.15;;;;;;;13.25;81.9502;95545.19;;;;
2022/09/06 04:27:52;;;;;;;7.299999;6.15;;;;;;;13.25;81.9502;95545.19;;;;
2022/09/06 04:28:53;;;;;;;7.299999;6.15;;;;;;;13.25;81.9502;95545.19;;;;
2022/09/06 04:29:55;;;;;;;7.299999;6.15;;;;;;;13.25;81.9502;95545.19;;;;
2022/09/06 04:30:56;;;;;;;7.299999;6.15;;;;;;;13.25;81.9502;95545.19;;;;
2022/09/06 04:31:58;;;;;;;7.299999;6.15;;;;;;;13.25;81.9502;95545.19;;;;
2022/09/06 04:32:58;;;;;;;7.299999;6.15;;;;;;;13.25;81.9502;95545.19;;;;
2022/09/06 04:33:59;;;;;;;7.299999;6.15;;;;;;;13.25;81.9502;95545.19;;;;
2022/09/06 04:34:59;;;;;;;7.299999;6.15;;;;;;;13.25;81.9502;95545.19;;;;
2022/09/06 04:36:00;;;;;;;7.299999;6.15;;;;;;;13.25;81.9502;95545.19;;;;
2022/09/06 04:37:02;;;;;;;7.299999;6.15;;;;;;;13.25;81.9502;95545.19;;;;
2022/09/06 04:38:03;;;;;;;7.749999;6.6;;;;;;;13.18;82.13184;95537.3;;;;
2022/09/06 04:39:05;;;;;;;7.749999;6.6;;;;;;;13.18;82.13184;95537.3;;;;
2022/09/06 04:40:05;;;;;;;7.749999;6.6;;;;;;;13.18;82.13184;95537.3;;;;
2022/09/06 04:41:06;;;;;;;7.749999;6.6;;;;;;;13.18;82.13184;95537.3;;;;
2022/09/06 04:42:09;;;;;;;7.749999;6.6;;;;;;;13.18;82.13184;95537.3;;;;
2022/09/06 04:43:10;;;;;;;7.749999;6.6;;;;;;;13.18;82.13184;95537.3;;;;
2022/09/06 04:44:10;;;;;;;7.749999;6.6;;;;;;;13.18;82.13184;95537.3;;;;
2022/09/06 04:45:11;;;;;;;7.749999;6.6;;;;;;;13.18;82.13184;95537.3;;;;
2022/09/06 04:46:11;;;;;;;7.749999;6.6;;;;;;;13.18;82.13184;95537.3;;;;
2022/09/06 04:47:18;;;;;;;7.749999;6.6;;;;;;;13.18;82.13184;95537.3;;;;
2022/09/06 04:48:19;;;;;;;7.749999;6.6;;;;;;;13.18;82.13184;95537.3;;;;
2022/09/06 04:49:19;;;;;;;7.799999;7;;;;;;;13.15;82.18945;95542.22;;;;
2022/09/06 04:50:20;;;;;;;7.799999;7;;;;;;;13.15;82.18945;95542.22;;;;
2022/09/06 04:51:20;;;;;;;7.799999;7;;;;;;;13.15;82.18945;95542.22;;;;
2022/09/06 04:52:22;;;;;;;7.799999;7;;;;;;;13.15;82.18945;95542.22;;;;
2022/09/06 04:53:22;;;;;;;7.799999;7;;;;;;;13.15;82.18945;95542.22;;;;
2022/09/06 04:54:23;;;;;;;7.799999;7;;;;;;;13.15;82.18945;95542.22;;;;
2022/09/06 04:55:25;;;;;;;7.799999;7;;;;;;;13.15;82.18945;95542.22;;;;
2022/09/06 04:56:25;;;;;;;7.799999;7;;;;;;;13.15;82.18945;95542.22;;;;
2022/09/06 04:57:26;;;;;;;7.799999;7;;;;;;;13.15;82.18945;95542.22;;;;
2022/09/06 04:58:26;;;;;;;7.799999;7;;;;;;;13.15;82.18945;95542.22;;;;
2022/09/06 04:59:27;;;;;;;7.400001;6.700001;;;;;;;13.24;82.33691;95549.7;;;;
2022/09/06 05:00:27;;;;;;;7.400001;6.700001;;;;;;;13.24;82.33691;95549.7;;;;
2022/09/06 05:01:29;;;;;;;7.400001;6.700001;;;;;;;13.24;82.33691;95549.7;;;;
2022/09/06 05:02:29;;;;;;;7.400001;6.700001;;;;;;;13.24;82.33691;95549.7;;;;
2022/09/06 05:03:30;;;;;;;7.400001;6.700001;;;;;;;13.24;82.33691;95549.7;;;;
2022/09/06 05:04:30;;;;;;;7.400001;6.700001;;;;;;;13.24;82.33691;95549.7;;;;
2022/09/06 05:05:31;;;;;;;7.400001;6.700001;;;;;;;13.24;82.33691;95549.7;;;;
2022/09/06 05:06:31;;;;;;;7.400001;6.700001;;;;;;;13.24;82.33691;95549.7;;;;
2022/09/06 05:07:32;;;;;;;7.400001;6.700001;;;;;;;13.24;82.33691;95549.7;;;;
2022/09/06 05:08:32;;;;;;;7.400001;6.700001;;;;;;;13.24;82.33691;95549.7;;;;
2022/09/06 05:09:36;;;;;;;7.400001;6.700001;;;;;;;13.24;82.33691;95549.7;;;;
2022/09/06 05:10:37;;;;;;;7.550001;6.749999;;;;;;;13.34;82.31348;95543.33;;;;
2022/09/06 05:11:37;;;;;;;7.550001;6.749999;;;;;;;13.34;82.31348;95543.33;;;;
2022/09/06 05:12:38;;;;;;;7.550001;6.749999;;;;;;;13.34;82.31348;95543.33;;;;
2022/09/06 05:13:38;;;;;;;7.550001;6.749999;;;;;;;13.34;82.31348;95543.33;;;;
2022/09/06 05:14:39;;;;;;;7.550001;6.749999;;;;;;;13.34;82.31348;95543.33;;;;
2022/09/06 05:15:39;;;;;;;7.550001;6.749999;;;;;;;13.34;82.31348;95543.33;;;;
2022/09/06 05:16:40;;;;;;;7.550001;6.749999;;;;;;;13.34;82.31348;95543.33;;;;
2022/09/06 05:17:41;;;;;;;7.550001;6.749999;;;;;;;13.34;82.31348;95543.33;;;;
2022/09/06 05:18:41;;;;;;;7.550001;6.749999;;;;;;;13.34;82.31348;95543.33;;;;
2022/09/06 05:19:42;;;;;;;7.550001;6.749999;;;;;;;13.34;82.31348;95543.33;;;;
2022/09/06 05:20:42;;;;;;;7.550001;6.749999;;;;;;;13.34;82.31348;95543.33;;;;
2022/09/06 05:21:43;;;;;;;8.25;7.4;;;;;;;13.62;82.35352;95567.61;;;;
2022/09/06 05:22:45;;;;;;;8.25;7.4;;;;;;;13.62;82.35352;95567.61;;;;
2022/09/06 05:23:51;;;;;;;8.25;7.4;;;;;;;13.62;82.35352;95567.61;;;;
2022/09/06 05:24:51;;;;;;;8.25;7.4;;;;;;;13.62;82.35352;95567.61;;;;
2022/09/06 05:25:51;;;;;;;8.25;7.4;;;;;;;13.62;82.35352;95567.61;;;;
2022/09/06 05:26:52;;;;;;;8.25;7.4;;;;;;;13.62;82.35352;95567.61;;;;
2022/09/06 05:27:53;;;;;;;8.25;7.4;;;;;;;13.62;82.35352;95567.61;;;;
2022/09/06 05:28:53;;;;;;;8.25;7.4;;;;;;;13.62;82.35352;95567.61;;;;
2022/09/06 05:29:54;;;;;;;8.25;7.4;;;;;;;13.62;82.35352;95567.61;;;;
2022/09/06 05:30:54;;;;;;;8.25;7.4;;;;;;;13.62;82.35352;95567.61;;;;
2022/09/06 05:32:04;;;;;;;8.25;7.4;;;;;;;13.62;82.35352;95567.61;;;;
2022/09/06 05:33:05;;;;;;;8.25;7.4;;;;;;;13.62;82.35352;95567.61;;;;
2022/09/06 05:34:05;;;;;;;8.25;7.4;;;;;;;13.62;82.35352;95567.61;;;;
2022/09/06 05:35:06;;;;;;;8.25;7.4;;;;;;;13.62;82.35352;95567.61;;;;
2022/09/06 05:36:07;;;;;;;8.25;7.4;;;;;;;13.62;82.35352;95567.61;;;;
2022/09/06 05:37:08;;;;;;;8.25;7.4;;;;;;;13.62;82.35352;95567.61;;;;
2022/09/06 05:38:08;;;;;;;8.25;7.4;;;;;;;13.62;82.35352;95567.61;;;;
2022/09/06 05:39:08;;;;;;;8.25;7.4;;;;;;;13.62;82.35352;95567.61;;;;
2022/09/06 05:40:09;;;;;;;8.25;7.4;;;;;;;13.62;82.35352;95567.61;;;;
2022/09/06 05:41:10;;;;;;;8.25;7.4;;;;;;;13.62;82.35352;95567.61;;;;
2022/09/06 05:42:10;;;;;;;7.65;6.950001;;;;;;;14.31;82.18848;95598.1;;;;